Time;durP1;ratioP1;P1;durP2;ratioP2;P2;SDS_P1;SDS_P2;PMS_P1;PMS_P2;Temp;Humidity;BMP_temperature;BMP_pressure;BME280_temperature;BME280_humidity;BME280_pressure;Samples;Min_cycle;Max_cycle;Signal;HPM_P1;HPM_P2
2022/12/08 00:01:45;;;;;;;16.42;12.80;;;;;;;4.90;100.00;101058.16;5176396;28;20022;-69
2022/12/08 00:04:16;;;;;;;14.88;12.50;;;;;;;4.88;100.00;101053.03;5173785;28;20424;-70
2022/12/08 00:09:40;;;;;;;16.40;13.38;;;;;;;4.91;100.00;101046.00;5172687;28;20034;-69
2022/12/08 00:12:16;;;;;;;17.85;14.63;;;;;;;4.85;100.00;101042.00;5156148;28;20026;-69
2022/12/08 00:14:48;;;;;;;18.02;14.88;;;;;;;4.84;100.00;101037.72;5172560;28;20073;-70
2022/12/08 00:17:20;;;;;;;17.00;14.25;;;;;;;4.82;100.00;101032.63;5165452;28;20125;-70
2022/12/08 00:19:51;;;;;;;18.55;15.77;;;;;;;4.83;100.00;101020.47;5174507;28;20035;-70
2022/12/08 00:22:22;;;;;;;17.70;15.85;;;;;;;4.81;100.00;101023.19;5173237;28;20061;-69
2022/12/08 00:24:53;;;;;;;21.58;16.58;;;;;;;4.71;100.00;101006.47;5174604;28;20458;-69
2022/12/08 00:27:25;;;;;;;19.95;17.05;;;;;;;4.80;100.00;101012.88;5174883;28;20392;-70
2022/12/08 00:29:56;;;;;;;19.20;17.20;;;;;;;4.77;100.00;101006.13;5172897;28;20472;-70
2022/12/08 00:32:27;;;;;;;20.83;18.02;;;;;;;4.80;100.00;101007.69;5175480;28;20039;-69
2022/12/08 00:34:58;;;;;;;18.75;16.85;;;;;;;4.73;100.00;101004.59;5176089;28;20034;-70
2022/12/08 00:37:30;;;;;;;22.27;18.33;;;;;;;4.72;100.00;101002.94;5176062;28;20395;-69
2022/12/08 00:40:01;;;;;;;28.65;19.75;;;;;;;4.74;100.00;101000.25;5171819;28;20480;-69
2022/12/08 00:42:32;;;;;;;21.90;19.33;;;;;;;4.78;100.00;101007.78;5174938;28;20484;-70
2022/12/08 00:45:04;;;;;;;20.85;18.52;;;;;;;4.78;100.00;101002.59;5157180;28;20035;-69
2022/12/08 00:47:35;;;;;;;23.02;19.15;;;;;;;4.76;100.00;101007.00;5173454;28;20220;-71
2022/12/08 00:50:07;;;;;;;25.42;20.38;;;;;;;4.77;100.00;101005.25;5174989;28;20097;-70
2022/12/08 00:52:38;;;;;;;23.25;20.80;;;;;;;4.75;100.00;101002.75;5175747;28;20031;-70
2022/12/08 00:55:10;;;;;;;22.48;20.27;;;;;;;4.75;100.00;100996.72;5172782;28;20113;-70
2022/12/08 00:57:41;;;;;;;23.30;20.63;;;;;;;4.74;100.00;101000.25;5173184;28;20037;-70
2022/12/08 01:00:13;;;;;;;23.42;20.70;;;;;;;4.74;100.00;100993.31;5175605;28;20017;-70
2022/12/08 01:02:44;;;;;;;23.40;20.40;;;;;;;4.73;100.00;100980.41;5175854;28;20065;-70
2022/12/08 01:05:15;;;;;;;24.00;19.58;;;;;;;4.76;100.00;100982.81;5173560;28;20038;-70
2022/12/08 01:07:48;;;;;;;25.27;19.95;;;;;;;4.79;100.00;100987.84;5174424;28;20037;-69
2022/12/08 01:10:19;;;;;;;20.52;18.48;;;;;;;4.79;100.00;100982.66;5174674;28;20023;-70
2022/12/08 01:12:50;;;;;;;18.90;16.95;;;;;;;4.78;100.00;100978.41;5172417;28;20395;-71
2022/12/08 01:15:21;;;;;;;19.73;16.77;;;;;;;4.76;100.00;100977.63;5175358;28;20480;-70
2022/12/08 01:17:53;;;;;;;19.15;15.55;;;;;;;4.77;100.00;100972.38;5174613;28;20034;-69
2022/12/08 01:20:24;;;;;;;19.27;16.33;;;;;;;4.78;100.00;100975.78;5173686;28;20031;-70
2022/12/08 01:22:55;;;;;;;18.52;15.48;;;;;;;4.75;100.00;100970.78;5173810;28;20026;-69
2022/12/08 01:25:27;;;;;;;18.10;15.15;;;;;;;4.78;100.00;100973.19;5175414;28;20039;-69
2022/12/08 01:27:58;;;;;;;15.93;14.07;;;;;;;4.80;100.00;100969.56;5173711;28;20721;-69
2022/12/08 01:30:29;;;;;;;15.05;13.43;;;;;;;4.83;100.00;100968.56;5174503;28;20034;-70
2022/12/08 01:33:00;;;;;;;14.80;13.05;;;;;;;4.83;100.00;100973.75;5172563;28;20043;-70
2022/12/08 01:35:33;;;;;;;17.17;12.73;;;;;;;4.84;100.00;100978.84;5174759;28;20039;-69
2022/12/08 01:38:04;;;;;;;13.23;11.90;;;;;;;4.81;100.00;100973.00;5174846;28;20022;-70
2022/12/08 01:40:35;;;;;;;13.48;10.90;;;;;;;4.85;100.00;100971.91;5171755;28;20062;-70
2022/12/08 01:43:14;;;;;;;12.20;10.93;;;;;;;4.95;100.00;100972.19;5173166;28;20033;-70
2022/12/08 01:45:46;;;;;;;13.63;11.60;;;;;;;4.87;100.00;100970.88;5173476;28;20069;-69
2022/12/08 01:48:24;;;;;;;11.88;10.65;;;;;;;4.92;100.00;100961.97;5174845;28;20027;-69
2022/12/08 01:50:56;;;;;;;13.13;11.25;;;;;;;4.90;100.00;100962.09;5173135;28;20022;-70
2022/12/08 01:53:31;;;;;;;11.95;10.68;;;;;;;4.95;100.00;100957.44;5174713;28;20037;-69
2022/12/08 01:56:10;;;;;;;11.48;10.43;;;;;;;4.97;100.00;100954.78;5172058;28;20061;-70
2022/12/08 01:58:47;;;;;;;12.77;11.32;;;;;;;4.93;100.00;100963.69;5173724;28;20488;-69
2022/12/08 02:01:18;;;;;;;12.93;10.55;;;;;;;4.87;100.00;100955.31;5172747;28;20392;-69
2022/12/08 02:03:57;;;;;;;12.93;11.20;;;;;;;4.98;100.00;100949.47;5172649;28;20026;-69
2022/12/08 02:06:35;;;;;;;12.93;11.55;;;;;;;4.92;100.00;100960.22;5173705;28;20070;-70
2022/12/08 02:09:07;;;;;;;14.07;10.90;;;;;;;4.90;100.00;100958.66;5174809;28;20027;-70
2022/12/08 02:11:38;;;;;;;13.48;11.48;;;;;;;4.89;100.00;100947.44;5174333;28;20035;-70
2022/12/08 02:14:12;;;;;;;12.70;11.02;;;;;;;4.95;100.00;100941.03;5172365;28;20049;-69
2022/12/08 02:17:05;;;;;;;13.35;11.07;;;;;;;5.10;100.00;100943.53;5173733;28;20026;-69
2022/12/08 02:20:01;;;;;;;12.63;11.33;;;;;;;5.08;100.00;100944.59;5164727;28;20073;-70
2022/12/08 02:22:45;;;;;;;13.63;11.00;;;;;;;4.97;100.00;100934.00;5173021;28;20027;-70
2022/12/08 02:25:30;;;;;;;11.68;10.48;;;;;;;4.99;100.00;100934.72;5173202;28;20073;-71
2022/12/08 02:28:25;;;;;;;11.88;10.32;;;;;;;4.94;100.00;100929.81;5174370;28;20043;-69
2022/12/08 02:31:34;;;;;;;12.27;9.38;;;;;;;5.10;100.00;100920.19;5185345;23;20030;-69
2022/12/08 02:34:18;;;;;;;10.90;9.65;;;;;;;4.98;100.00;100920.91;5135212;29;20047;-69
2022/12/08 02:37:02;;;;;;;9.80;8.55;;;;;;;5.00;100.00;100918.22;5122816;29;20050;-68
2022/12/08 02:39:56;;;;;;;10.52;9.18;;;;;;;5.09;100.00;100907.28;5143269;28;20050;-68
2022/12/08 02:42:57;;;;;;;9.75;8.30;;;;;;;4.97;100.00;100905.44;5135979;29;20201;-68
2022/12/08 02:45:38;;;;;;;12.25;8.43;;;;;;;4.97;100.00;100910.66;5113467;29;20066;-68
2022/12/08 02:48:09;;;;;;;8.27;7.35;;;;;;;4.85;100.00;100899.25;5131709;29;20067;-69
2022/12/08 02:50:41;;;;;;;10.27;7.35;;;;;;;4.87;100.00;100908.59;5131564;29;20056;-68
2022/12/08 02:53:12;;;;;;;7.82;7.03;;;;;;;4.87;100.00;100899.97;5133377;29;20349;-68
2022/12/08 02:56:10;;;;;;;9.25;7.25;;;;;;;4.88;100.00;100894.66;5117196;29;20405;-69
2022/12/08 02:58:59;;;;;;;8.20;7.35;;;;;;;5.10;100.00;100878.63;5114028;29;20028;-69
2022/12/08 03:02:02;;;;;;;9.18;7.53;;;;;;;5.05;100.00;100888.47;5133175;29;20036;-68
2022/12/08 03:05:01;;;;;;;9.55;7.88;;;;;;;5.06;100.00;100878.91;5131804;29;20043;-69
2022/12/08 03:07:53;;;;;;;9.70;8.07;;;;;;;5.09;100.00;100881.34;5131970;29;20042;-68
2022/12/08 03:10:32;;;;;;;10.93;7.85;;;;;;;4.96;100.00;100881.22;5132278;29;20400;-68
2022/12/08 03:13:13;;;;;;;9.25;8.18;;;;;;;4.99;100.00;100880.22;5130935;29;20370;-69
2022/12/08 03:15:48;;;;;;;9.77;8.10;;;;;;;4.96;100.00;100885.59;5132824;29;20118;-68
2022/12/08 03:18:27;;;;;;;10.57;9.18;;;;;;;4.94;100.00;100877.91;5133023;29;20031;-68
2022/12/08 03:20:59;;;;;;;11.35;8.85;;;;;;;4.90;100.00;100875.59;5114554;29;20029;-69
2022/12/08 03:23:34;;;;;;;11.60;9.05;;;;;;;4.89;100.00;100869.56;5132713;29;20035;-68
2022/12/08 03:26:24;;;;;;;10.95;9.75;;;;;;;4.98;100.00;100860.38;5134291;29;20024;-68
2022/12/08 03:28:56;;;;;;;10.45;9.35;;;;;;;4.94;100.00;100869.28;5131643;29;20036;-68
2022/12/08 03:31:32;;;;;;;11.98;10.77;;;;;;;4.97;100.00;100851.75;5131877;29;20047;-68
2022/12/08 03:34:05;;;;;;;14.18;12.32;;;;;;;4.92;100.00;100853.78;5133230;29;20509;-68
2022/12/08 03:36:36;;;;;;;16.70;14.85;;;;;;;4.91;100.00;100856.47;5131566;29;20036;-68
2022/12/08 03:39:08;;;;;;;17.13;15.35;;;;;;;4.88;100.00;100849.72;5132355;29;20639;-68
2022/12/08 03:41:39;;;;;;;19.15;16.52;;;;;;;4.92;100.00;100848.59;5134306;29;20050;-68
2022/12/08 03:44:10;;;;;;;19.05;17.05;;;;;;;4.96;100.00;100847.47;5136543;29;20023;-69
2022/12/08 03:46:42;;;;;;;25.20;21.95;;;;;;;4.92;100.00;100843.41;5135538;29;20043;-68
2022/12/08 03:49:13;;;;;;;25.92;23.13;;;;;;;4.92;100.00;100833.00;5136438;29;20385;-69
2022/12/08 03:51:44;;;;;;;26.65;22.70;;;;;;;4.99;100.00;100839.50;5136290;29;20445;-69
2022/12/08 03:54:15;;;;;;;28.05;24.48;;;;;;;4.99;100.00;100842.09;5137254;29;20489;-69
2022/12/08 03:56:47;;;;;;;29.90;24.55;;;;;;;5.00;100.00;100836.00;5134303;29;20027;-69
2022/12/08 03:59:18;;;;;;;29.13;25.38;;;;;;;4.98;100.00;100835.25;5118594;29;20050;-69
2022/12/08 04:01:49;;;;;;;31.92;27.10;;;;;;;4.98;100.00;100832.66;5119468;29;20036;-69
2022/12/08 04:04:21;;;;;;;32.65;27.85;;;;;;;4.98;100.00;100826.63;5135006;29;20592;-69
2022/12/08 04:06:52;;;;;;;32.72;28.02;;;;;;;5.03;100.00;100824.56;5130794;29;20039;-69
2022/12/08 04:09:23;;;;;;;31.58;28.15;;;;;;;5.02;100.00;100828.94;5136183;29;20015;-69
2022/12/08 04:11:54;;;;;;;34.28;27.45;;;;;;;4.93;100.00;100807.91;5137300;29;20043;-69
2022/12/08 04:14:26;;;;;;;28.63;24.90;;;;;;;5.03;100.00;100824.56;5117916;29;20044;-68
2022/12/08 04:16:57;;;;;;;31.08;26.40;;;;;;;5.02;100.00;100825.50;5135212;29;20084;-68
2022/12/08 04:19:28;;;;;;;30.90;26.42;;;;;;;5.03;100.00;100829.75;5136138;29;20032;-69
2022/12/08 04:21:59;;;;;;;28.77;25.08;;;;;;;5.03;100.00;100830.59;5119602;29;20051;-68
2022/12/08 04:24:31;;;;;;;27.73;24.25;;;;;;;5.02;100.00;100834.13;5135273;29;20135;-68
2022/12/08 04:27:02;;;;;;;25.25;21.65;;;;;;;5.04;100.00;100826.25;5135588;29;20078;-69
2022/12/08 04:29:33;;;;;;;21.85;18.88;;;;;;;5.01;100.00;100810.88;5135904;29;20484;-68
2022/12/08 04:32:05;;;;;;;23.60;20.25;;;;;;;5.01;100.00;100806.50;5118642;29;20606;-68
2022/12/08 04:34:36;;;;;;;20.60;17.25;;;;;;;5.02;100.00;100813.34;5134577;29;20489;-69
2022/12/08 04:37:07;;;;;;;20.42;17.70;;;;;;;5.02;100.00;100802.13;5136185;29;20020;-70
2022/12/08 04:39:38;;;;;;;21.77;17.00;;;;;;;5.05;100.00;100809.75;5135316;29;20119;-69
2022/12/08 04:42:10;;;;;;;18.30;16.40;;;;;;;5.01;100.00;100805.69;5134907;29;20119;-68
2022/12/08 04:44:41;;;;;;;17.73;14.60;;;;;;;5.03;100.00;100802.03;5116895;29;20047;-68
2022/12/08 04:47:12;;;;;;;18.63;15.02;;;;;;;5.01;100.00;100788.31;5135524;29;20034;-69
2022/12/08 04:49:43;;;;;;;15.13;12.35;;;;;;;5.02;100.00;100773.56;5135364;29;20090;-68
2022/12/08 04:52:15;;;;;;;14.55;13.00;;;;;;;5.00;100.00;100786.66;5132229;29;20032;-68
2022/12/08 04:54:46;;;;;;;14.82;12.30;;;;;;;4.99;100.00;100792.78;5135875;29;20023;-68
2022/12/08 04:57:18;;;;;;;11.85;10.43;;;;;;;4.94;100.00;100799.19;5135885;29;20114;-68
2022/12/08 04:59:49;;;;;;;9.80;8.68;;;;;;;4.94;100.00;100778.41;5133708;29;20036;-68
2022/12/08 05:02:21;;;;;;;7.78;6.38;;;;;;;4.94;100.00;100783.63;5134089;29;20382;-68
2022/12/08 05:04:52;;;;;;;7.28;5.70;;;;;;;4.93;100.00;100787.16;5134744;29;20407;-69
2022/12/08 05:07:23;;;;;;;6.90;5.10;;;;;;;4.88;100.00;100779.63;5131702;29;20040;-68
2022/12/08 05:09:54;;;;;;;5.97;4.22;;;;;;;4.88;100.00;100790.84;5131959;29;20015;-69
2022/12/08 05:12:26;;;;;;;5.82;4.30;;;;;;;4.91;100.00;100802.81;5135536;29;20032;-69
2022/12/08 05:14:57;;;;;;;5.30;3.70;;;;;;;4.91;100.00;100794.19;5135627;29;20027;-68
2022/12/08 05:17:28;;;;;;;4.88;3.80;;;;;;;4.92;100.00;100793.25;5133866;29;20027;-69
2022/12/08 05:20:00;;;;;;;6.53;3.80;;;;;;;4.93;100.00;100787.97;5132559;29;20028;-68
2022/12/08 05:22:31;;;;;;;6.05;3.90;;;;;;;4.96;100.00;100792.94;5132709;29;20068;-69
2022/12/08 05:25:02;;;;;;;5.13;4.40;;;;;;;4.96;100.00;100790.34;5131779;29;20507;-69
2022/12/08 05:27:34;;;;;;;6.03;4.35;;;;;;;4.97;100.00;100792.03;5135593;29;20119;-69
2022/12/08 05:30:06;;;;;;;7.10;4.97;;;;;;;4.87;100.00;100765.81;5134345;29;20038;-68
2022/12/08 05:32:37;;;;;;;6.00;4.30;;;;;;;5.00;100.00;100789.25;5144998;29;20126;-68
2022/12/08 05:35:09;;;;;;;6.07;4.78;;;;;;;5.01;100.00;100790.91;5153572;29;20058;-69
2022/12/08 05:37:40;;;;;;;7.25;3.92;;;;;;;4.90;100.00;100782.13;5154883;29;20055;-68
2022/12/08 05:40:11;;;;;;;5.40;3.72;;;;;;;4.89;100.00;100789.09;5153907;29;20024;-68
2022/12/08 05:42:43;;;;;;;6.32;3.97;;;;;;;4.90;100.00;100793.34;5148390;28;20051;-68
2022/12/08 05:45:14;;;;;;;7.40;2.90;;;;;;;4.85;100.00;100795.41;5154984;28;20023;-68
2022/12/08 05:47:45;;;;;;;5.72;2.30;;;;;;;4.73;100.00;100788.34;5155115;28;20473;-69
2022/12/08 05:50:17;;;;;;;3.25;1.95;;;;;;;4.75;100.00;100791.69;5152003;29;20240;-68
2022/12/08 05:52:48;;;;;;;5.57;2.00;;;;;;;4.79;100.00;100788.00;5153739;28;20064;-69
2022/12/08 05:55:19;;;;;;;3.63;1.80;;;;;;;4.77;100.00;100782.91;5150019;29;20046;-69
2022/12/08 05:57:51;;;;;;;4.25;2.13;;;;;;;4.79;100.00;100783.63;5153099;28;20030;-68
2022/12/08 06:00:22;;;;;;;6.05;2.28;;;;;;;4.76;100.00;100775.19;5151113;28;20028;-69
2022/12/08 06:02:53;;;;;;;4.07;2.00;;;;;;;4.82;100.00;100773.06;5132899;29;20036;-68
2022/12/08 06:05:24;;;;;;;4.88;1.73;;;;;;;4.80;100.00;100776.66;5152969;28;20081;-68
2022/12/08 06:07:56;;;;;;;6.45;2.10;;;;;;;4.79;100.00;100781.03;5132130;29;20027;-68
2022/12/08 06:10:27;;;;;;;3.80;1.83;;;;;;;4.80;100.00;100769.72;5150658;28;20027;-69
2022/12/08 06:12:59;;;;;;;5.00;1.88;;;;;;;4.83;100.00;100773.88;5154207;28;20072;-69
2022/12/08 06:15:32;;;;;;;4.25;2.08;;;;;;;4.81;100.00;100765.34;5153402;29;20035;-68
2022/12/08 06:18:04;;;;;;;;;;;;;;;5.33;100.00;100765.50;5152013;28;20436;-69
2022/12/08 06:20:35;;;;;;;2.95;2.25;;;;;;;4.87;100.00;100764.97;5153933;28;19937;-68
2022/12/08 06:23:07;;;;;;;4.95;1.95;;;;;;;4.90;100.00;100767.41;5154137;28;20035;-69
2022/12/08 06:25:38;;;;;;;5.20;1.90;;;;;;;4.83;100.00;100746.16;5151312;28;20480;-68
2022/12/08 06:28:09;;;;;;;3.80;2.17;;;;;;;4.91;100.00;100761.25;5149094;29;20030;-68
2022/12/08 06:30:41;;;;;;;2.38;1.92;;;;;;;4.88;100.00;100748.47;5153962;28;20488;-68
2022/12/08 06:33:12;;;;;;;4.70;2.20;;;;;;;4.99;100.00;100768.56;5151610;28;20036;-69
2022/12/08 06:35:43;;;;;;;3.80;2.53;;;;;;;4.95;100.00;100769.69;5150052;29;20043;-69
2022/12/08 06:38:14;;;;;;;4.70;2.60;;;;;;;4.98;100.00;100775.53;5154552;28;20472;-68
2022/12/08 06:40:52;;;;;;;4.22;2.00;;;;;;;5.10;100.00;100768.72;5153979;28;20023;-68
2022/12/08 06:43:24;;;;;;;2.38;1.65;;;;;;;4.94;100.00;100775.81;5151169;29;20031;-68
2022/12/08 06:45:55;;;;;;;2.78;1.65;;;;;;;4.94;100.00;100776.66;5153839;28;20027;-69
2022/12/08 06:48:27;;;;;;;3.63;1.90;;;;;;;4.94;100.00;100775.81;5154381;29;20027;-68
2022/12/08 06:51:10;;;;;;;3.40;1.63;;;;;;;5.08;100.00;100768.84;5152046;28;20019;-68
2022/12/08 06:53:42;;;;;;;6.30;2.28;;;;;;;4.89;100.00;100765.72;5153638;28;20035;-69
2022/12/08 06:56:14;;;;;;;2.90;1.98;;;;;;;4.90;100.00;100761.38;5153639;28;20429;-68
2022/12/08 06:58:46;;;;;;;6.25;2.10;;;;;;;4.95;100.00;100764.50;5149943;28;20035;-69
2022/12/08 07:01:17;;;;;;;5.63;2.50;;;;;;;4.97;100.00;100763.50;5152722;28;20051;-69
2022/12/08 07:03:48;;;;;;;4.43;2.47;;;;;;;4.93;100.00;100764.63;5154186;28;20042;-68
2022/12/08 07:06:23;;;;;;;6.22;2.78;;;;;;;4.99;100.00;100761.63;5154117;28;20031;-69
2022/12/08 07:08:54;;;;;;;5.60;2.80;;;;;;;4.94;100.00;100763.69;5151958;28;20054;-69
2022/12/08 07:11:25;;;;;;;5.65;3.60;;;;;;;4.95;100.00;100767.94;5154002;28;20595;-68
2022/12/08 07:13:57;;;;;;;5.72;3.67;;;;;;;4.93;100.00;100758.59;5153952;28;20020;-69
2022/12/08 07:16:29;;;;;;;6.60;4.22;;;;;;;4.95;100.00;100773.13;5152506;28;20528;-68
2022/12/08 07:19:01;;;;;;;6.85;5.43;;;;;;;4.95;100.00;100762.72;5157789;28;20034;-69
2022/12/08 07:21:32;;;;;;;8.63;7.72;;;;;;;5.01;100.00;100770.16;5156043;28;20042;-69
2022/12/08 07:24:04;;;;;;;13.18;8.98;;;;;;;5.01;100.00;100775.34;5156111;29;20019;-68
2022/12/08 07:26:35;;;;;;;13.57;11.27;;;;;;;5.00;100.00;100770.22;5139500;29;20097;-68
2022/12/08 07:29:07;;;;;;;14.02;12.70;;;;;;;5.00;100.00;100776.28;5157406;28;20027;-72
2022/12/08 07:31:39;;;;;;;17.67;14.77;;;;;;;4.98;100.00;100777.31;5147590;28;20549;-68
2022/12/08 07:34:11;;;;;;;19.70;17.58;;;;;;;4.94;100.00;100768.88;5129735;29;20130;-68
2022/12/08 07:36:42;;;;;;;23.70;21.03;;;;;;;4.95;100.00;100773.13;5155008;29;20524;-68
2022/12/08 07:39:14;;;;;;;23.23;20.02;;;;;;;4.95;100.00;100764.50;5134031;28;20034;-68
2022/12/08 07:41:45;;;;;;;22.15;19.42;;;;;;;4.96;100.00;100776.53;5154361;28;20087;-68
2022/12/08 07:44:16;;;;;;;24.20;21.00;;;;;;;4.95;100.00;100761.91;5147477;29;20024;-68
2022/12/08 07:46:48;;;;;;;22.35;19.95;;;;;;;4.92;100.00;100762.09;5157164;28;20023;-68
2022/12/08 07:49:19;;;;;;;21.88;19.35;;;;;;;4.94;100.00;100761.06;5157449;29;20015;-68
2022/12/08 07:51:50;;;;;;;22.52;20.17;;;;;;;4.93;100.00;100762.00;5156879;28;20030;-68
2022/12/08 07:54:21;;;;;;;22.33;20.02;;;;;;;4.91;100.00;100769.06;5155594;28;20023;-68
2022/12/08 07:56:56;;;;;;;25.13;22.42;;;;;;;4.93;100.00;100769.81;5149329;28;20491;-68
2022/12/08 07:59:27;;;;;;;25.10;22.42;;;;;;;4.84;100.00;100771.19;5149896;29;20039;-68
2022/12/08 08:01:59;;;;;;;24.83;22.33;;;;;;;4.85;100.00;100783.25;5155858;28;20054;-68
2022/12/08 08:04:30;;;;;;;23.23;20.80;;;;;;;4.80;100.00;100772.31;5155070;28;20039;-68
2022/12/08 08:07:01;;;;;;;19.10;16.83;;;;;;;4.72;100.00;100778.91;5156315;28;20027;-69
2022/12/08 08:09:33;;;;;;;17.30;14.85;;;;;;;4.72;100.00;100773.72;5156372;29;20027;-68
2022/12/08 08:12:04;;;;;;;16.33;14.63;;;;;;;4.73;100.00;100775.38;5154677;28;20038;-68
2022/12/08 08:14:35;;;;;;;17.77;14.40;;;;;;;4.75;100.00;100776.97;5145565;29;20519;-68
2022/12/08 08:17:07;;;;;;;12.98;11.40;;;;;;;4.71;100.00;100777.25;5153879;29;20027;-68
2022/12/08 08:19:38;;;;;;;12.48;10.48;;;;;;;4.75;100.00;100773.53;5155417;29;20019;-68
2022/12/08 08:22:09;;;;;;;11.05;9.95;;;;;;;4.76;100.00;100775.19;5153513;28;20612;-68
2022/12/08 08:24:40;;;;;;;12.38;10.02;;;;;;;4.68;100.00;100767.06;5156353;28;20381;-68
2022/12/08 08:27:12;;;;;;;11.35;10.15;;;;;;;4.80;100.00;100776.66;5155527;28;20445;-69
2022/12/08 08:29:44;;;;;;;11.48;10.05;;;;;;;4.76;100.00;100776.03;5155085;28;20050;-68
2022/12/08 08:32:15;;;;;;;13.00;10.18;;;;;;;4.83;100.00;100784.28;5154237;28;20035;-68
2022/12/08 08:34:46;;;;;;;10.80;9.70;;;;;;;4.87;100.00;100776.19;5154306;29;20035;-68
2022/12/08 08:37:18;;;;;;;12.07;9.18;;;;;;;4.86;100.00;100776.31;5156402;29;20565;-68
2022/12/08 08:39:49;;;;;;;10.85;8.70;;;;;;;4.87;100.00;100773.59;5155424;28;20027;-68
2022/12/08 08:42:20;;;;;;;10.27;7.78;;;;;;;4.85;100.00;100778.06;5146473;28;20027;-68
2022/12/08 08:44:51;;;;;;;8.07;6.57;;;;;;;4.81;100.00;100767.94;5152902;29;20798;-68
2022/12/08 08:47:23;;;;;;;14.18;7.10;;;;;;;4.83;100.00;100766.09;5155583;28;20031;-68
2022/12/08 08:49:54;;;;;;;10.50;7.72;;;;;;;4.87;100.00;100771.00;5155513;28;20025;-68
2022/12/08 08:52:25;;;;;;;16.85;10.10;;;;;;;4.88;100.00;100761.44;5154146;28;20416;-68
2022/12/08 08:54:56;;;;;;;16.05;13.25;;;;;;;4.93;100.00;100771.56;5155616;28;20494;-68
2022/12/08 08:57:28;;;;;;;19.52;16.33;;;;;;;4.93;100.00;100764.63;5155285;29;20393;-68
2022/12/08 08:59:59;;;;;;;21.00;17.27;;;;;;;4.96;100.00;100771.34;5147442;28;20460;-68
2022/12/08 09:02:30;;;;;;;21.35;17.17;;;;;;;4.99;100.00;100774.59;5152951;28;20608;-69
2022/12/08 09:05:02;;;;;;;19.63;17.52;;;;;;;4.86;100.00;100755.53;5152396;28;20027;-68
2022/12/08 09:07:33;;;;;;;21.90;17.67;;;;;;;4.96;100.00;100767.00;5151507;28;20035;-69
2022/12/08 09:10:05;;;;;;;19.15;16.80;;;;;;;4.93;100.00;100764.63;5151800;28;20019;-68
2022/12/08 09:12:37;;;;;;;17.70;15.80;;;;;;;4.82;100.00;100748.88;5152777;28;20047;-68
2022/12/08 09:15:08;;;;;;;17.20;15.35;;;;;;;4.91;100.00;100766.47;5149565;28;20027;-69
2022/12/08 09:17:40;;;;;;;18.38;15.35;;;;;;;4.91;100.00;100769.06;5146811;28;20039;-68
2022/12/08 09:20:11;;;;;;;18.40;16.38;;;;;;;4.92;100.00;100772.47;5148300;28;20027;-68
2022/12/08 09:22:42;;;;;;;18.95;15.75;;;;;;;4.92;100.00;100762.09;5151608;28;20031;-68
2022/12/08 09:25:14;;;;;;;18.27;15.02;;;;;;;4.97;100.00;100760.06;5153415;29;20027;-68
2022/12/08 09:27:45;;;;;;;15.18;12.70;;;;;;;4.99;100.00;100755.59;5150030;29;20027;-68
2022/12/08 09:30:16;;;;;;;13.20;11.80;;;;;;;4.99;100.00;100756.41;5151648;29;20413;-68
2022/12/08 09:32:47;;;;;;;12.18;10.45;;;;;;;5.02;100.00;100755.41;5153056;28;20516;-68
2022/12/08 09:35:19;;;;;;;13.80;10.40;;;;;;;5.02;100.00;100755.41;5147298;28;20789;-68
2022/12/08 09:37:50;;;;;;;16.38;10.18;;;;;;;5.10;100.00;100758.34;5151632;28;20031;-68
2022/12/08 09:40:23;;;;;;;12.55;10.10;;;;;;;5.12;100.00;100759.94;5151618;28;20034;-68
2022/12/08 09:43:06;;;;;;;;;;;;;;;5.64;100.00;100760.91;5150449;28;20033;-69
2022/12/08 09:45:37;;;;;;;14.80;11.15;;;;;;;5.13;100.00;100752.97;5151984;28;20434;-68
2022/12/08 09:48:15;;;;;;;25.23;18.85;;;;;;;5.18;100.00;100765.66;5152639;29;20023;-68
2022/12/08 09:50:57;;;;;;;24.20;20.88;;;;;;;5.31;100.00;100763.94;5148553;28;20030;-68
2022/12/08 09:53:49;;;;;;;28.75;25.50;;;;;;;5.36;100.00;100765.31;5149628;28;20511;-68
2022/12/08 09:56:22;;;;;;;30.08;26.85;;;;;;;5.18;100.00;100755.25;5150142;28;20030;-68
2022/12/08 09:59:20;;;;;;;32.00;27.90;;;;;;;5.36;100.00;100756.69;5148070;28;20051;-68
2022/12/08 10:01:53;;;;;;;35.88;29.58;;;;;;;5.16;100.00;100751.94;5144669;28;20038;-68
2022/12/08 10:04:33;;;;;;;38.50;29.73;;;;;;;5.24;100.00;100752.28;5151739;29;20023;-68
2022/12/08 10:07:16;;;;;;;38.55;30.85;;;;;;;5.25;100.00;100751.34;5150960;29;20030;-68
2022/12/08 10:09:59;;;;;;;35.70;29.42;;;;;;;5.09;100.00;100739.34;5146059;28;20463;-70
2022/12/08 10:12:42;;;;;;;32.40;28.90;;;;;;;5.14;100.00;100746.84;5150489;28;20046;-68
2022/12/08 10:15:35;;;;;;;36.00;29.92;;;;;;;5.20;100.00;100753.41;5152363;29;20500;-68
2022/12/08 10:18:16;;;;;;;33.83;27.30;;;;;;;5.07;100.00;100754.16;5149916;29;20031;-68
2022/12/08 10:20:49;;;;;;;33.70;29.33;;;;;;;5.04;100.00;100743.16;5145351;28;20019;-68
2022/12/08 10:23:28;;;;;;;34.40;28.02;;;;;;;5.11;100.00;100744.41;5152246;29;20122;-68
2022/12/08 10:26:20;;;;;;;33.78;27.15;;;;;;;5.06;100.00;100736.09;5150087;29;20027;-68
2022/12/08 10:28:51;;;;;;;33.20;25.98;;;;;;;5.03;100.00;100742.31;5139506;29;20366;-68
2022/12/08 10:31:23;;;;;;;30.98;25.92;;;;;;;5.08;100.00;100740.28;5151950;28;20023;-69
2022/12/08 10:34:15;;;;;;;31.00;25.77;;;;;;;5.17;100.00;100720.66;5150145;28;20519;-69
2022/12/08 10:36:55;;;;;;;28.30;21.88;;;;;;;5.15;100.00;100732.91;5151610;29;20398;-68
2022/12/08 10:39:31;;;;;;;25.73;21.73;;;;;;;5.08;100.00;100722.09;5151486;28;20031;-69
2022/12/08 10:42:14;;;;;;;25.80;19.55;;;;;;;5.18;100.00;100729.28;5151480;28;20077;-68
2022/12/08 10:44:48;;;;;;;21.88;18.05;;;;;;;5.09;100.00;100728.13;5142927;28;20058;-68
2022/12/08 10:47:21;;;;;;;21.45;18.13;;;;;;;4.98;100.00;100735.75;5151711;29;20027;-68
2022/12/08 10:50:06;;;;;;;;;;;;;;;5.55;100.00;100738.13;5152671;28;20023;-68
2022/12/08 10:52:39;;;;;;;20.77;16.05;;;;;;;5.01;100.00;100730.38;5154345;28;19918;-69
2022/12/08 10:55:19;;;;;;;18.80;16.77;;;;;;;5.12;100.00;100736.56;5155903;28;20053;-68
2022/12/08 10:57:50;;;;;;;19.58;15.82;;;;;;;4.90;100.00;100725.84;5155456;29;20031;-68
2022/12/08 11:00:26;;;;;;;20.25;16.02;;;;;;;5.07;100.00;100735.16;5152727;29;20019;-69
2022/12/08 11:03:01;;;;;;;19.70;15.43;;;;;;;4.97;100.00;100737.53;5155909;28;20031;-68
2022/12/08 11:05:34;;;;;;;19.02;15.60;;;;;;;4.95;100.00;100734.19;5156064;28;20074;-68
2022/12/08 11:08:07;;;;;;;;;;;;;;;5.45;100.00;100727.50;5156242;28;20046;-68
2022/12/08 11:10:43;;;;;;;21.75;15.80;;;;;;;5.00;100.00;100719.16;5133630;29;20443;-68
2022/12/08 11:13:20;;;;;;;18.63;14.85;;;;;;;4.97;100.00;100721.94;5151155;29;20027;-69
2022/12/08 11:15:55;;;;;;;15.90;12.98;;;;;;;4.77;100.00;100715.44;5155318;29;20042;-69
2022/12/08 11:18:39;;;;;;;15.77;14.18;;;;;;;4.90;100.00;100720.66;5154263;28;20117;-68
2022/12/08 11:21:18;;;;;;;18.00;15.57;;;;;;;4.86;100.00;100716.59;5155741;28;20031;-68
2022/12/08 11:23:49;;;;;;;18.45;14.95;;;;;;;4.83;100.00;100714.19;5152983;29;20206;-68
2022/12/08 11:26:31;;;;;;;19.63;15.55;;;;;;;4.96;100.00;100709.88;5155706;28;20106;-69
2022/12/08 11:29:03;;;;;;;18.83;16.83;;;;;;;4.79;100.00;100704.94;5150396;28;20149;-68
2022/12/08 11:31:42;;;;;;;19.98;16.75;;;;;;;4.94;100.00;100706.56;5154749;28;20489;-68
2022/12/08 11:34:22;;;;;;;19.20;17.17;;;;;;;5.00;100.00;100695.81;5151868;29;20038;-69
2022/12/08 11:36:55;;;;;;;20.05;17.55;;;;;;;4.91;100.00;100696.38;5154845;29;20030;-69
2022/12/08 11:39:28;;;;;;;21.42;17.98;;;;;;;4.93;100.00;100688.50;5153153;29;21142;-69
2022/12/08 11:42:06;;;;;;;21.02;17.55;;;;;;;4.99;100.00;100696.72;5151746;28;20396;-69
2022/12/08 11:44:46;;;;;;;22.25;18.90;;;;;;;5.01;100.00;100691.44;5154573;29;20027;-68
2022/12/08 11:47:46;;;;;;;21.83;17.88;;;;;;;5.12;100.00;100687.22;5152050;29;20128;-69
2022/12/08 11:50:27;;;;;;;22.73;16.25;;;;;;;5.01;100.00;100687.06;5146335;28;20118;-69